TAP452 LPMA-LPPS
Flight info
| Callsign | TAP452 |
|---|---|
| Flight time | 0h 10m |
| Altitude | 6000 |
| Route | MARCU |
| Aircraft | A21N/M-SDE2E3FGHIRWXY/LB1 |
Departure
| Time | 2026-04-12 10:08 |
|---|---|
| Airport | Cristiano Ronaldo International Airport (LPMA) |
Arrival
| Time | 2026-04-12 10:18 |
|---|---|
| Airport | Porto Santo Airport (LPPS) |
| Time | Latitude | Longitude | Altitude | Speed | Heading |
|---|---|---|---|---|---|
| 2026-04-12 09:49 | 32.69336 | -16.77696 | 172 ft | 0 kts | 137° |
| 2026-04-12 10:01 | 32.69347 | -16.77707 | 169 ft | 3 kts | 149° |
| 2026-04-12 10:01 | 32.69364 | -16.77718 | 168 ft | 3 kts | 172° |
| 2026-04-12 10:01 | 32.69384 | -16.77720 | 168 ft | 3 kts | 194° |
| 2026-04-12 10:01 | 32.69403 | -16.77713 | 168 ft | 2 kts | 215° |
| 2026-04-12 10:02 | 32.69412 | -16.77705 | 169 ft | 3 kts | 225° |
| 2026-04-12 10:03 | 32.69411 | -16.77706 | 169 ft | 1 kts | 225° |
| 2026-04-12 10:04 | 32.69401 | -16.77717 | 168 ft | 3 kts | 224° |
| 2026-04-12 10:04 | 32.69380 | -16.77743 | 167 ft | 6 kts | 226° |
| 2026-04-12 10:04 | 32.69363 | -16.77764 | 169 ft | 3 kts | 229° |
| 2026-04-12 10:04 | 32.69318 | -16.77817 | 169 ft | 11 kts | 228° |
| 2026-04-12 10:05 | 32.69289 | -16.77889 | 166 ft | 3 kts | 261° |
| 2026-04-12 10:06 | 32.69289 | -16.77891 | 166 ft | 2 kts | 262° |
| 2026-04-12 10:06 | 32.69288 | -16.77966 | 162 ft | 22 kts | 271° |
| 2026-04-12 10:06 | 32.69157 | -16.78178 | 160 ft | 38 kts | 225° |
| 2026-04-12 10:06 | 32.69041 | -16.78316 | 160 ft | 34 kts | 224° |
| 2026-04-12 10:07 | 32.68899 | -16.78446 | 156 ft | 7 kts | 287° |
| 2026-04-12 10:07 | 32.68919 | -16.78449 | 156 ft | 1 kts | 5° |
| 2026-04-12 10:07 | 32.68954 | -16.78420 | 156 ft | 12 kts | 39° |
| 2026-04-12 10:07 | 32.69044 | -16.78310 | 160 ft | 33 kts | 44° |
| 2026-04-12 10:08 | 32.69390 | -16.77908 | 164 ft | 106 kts | 44° |
| 2026-04-12 10:08 | 32.69820 | -16.77410 | 176 ft | 150 kts | 44° |
| 2026-04-12 10:08 | 32.70635 | -16.76460 | 807 ft | 173 kts | 41° |
| 2026-04-12 10:08 | 32.71413 | -16.75115 | 1168 ft | 221 kts | 67° |
| 2026-04-12 10:09 | 32.71864 | -16.73385 | 2533 ft | 217 kts | 70° |
| 2026-04-12 10:09 | 32.72294 | -16.71640 | 3741 ft | 223 kts | 69° |
| 2026-04-12 10:09 | 32.72796 | -16.69866 | 4867 ft | 229 kts | 66° |
| 2026-04-12 10:09 | 32.73420 | -16.68006 | 5405 ft | 264 kts | 64° |
| 2026-04-12 10:10 | 32.74184 | -16.65839 | 5753 ft | 305 kts | 65° |
| 2026-04-12 10:10 | 32.75066 | -16.63350 | 5908 ft | 348 kts | 65° |
| 2026-04-12 10:10 | 32.75986 | -16.60719 | 5962 ft | 330 kts | 65° |
| 2026-04-12 10:10 | 32.76819 | -16.58301 | 5989 ft | 302 kts | 65° |
| 2026-04-12 10:11 | 32.77574 | -16.56079 | 5993 ft | 278 kts | 65° |
| 2026-04-12 10:11 | 32.78271 | -16.54028 | 6005 ft | 257 kts | 65° |
| 2026-04-12 10:11 | 32.78918 | -16.52126 | 6018 ft | 252 kts | 65° |
| 2026-04-12 10:11 | 32.79608 | -16.50079 | 6013 ft | 268 kts | 65° |
| 2026-04-12 10:12 | 32.80306 | -16.48045 | 5991 ft | 267 kts | 64° |
| 2026-04-12 10:12 | 32.81055 | -16.46027 | 5873 ft | 262 kts | 62° |
| 2026-04-12 10:12 | 32.81867 | -16.44057 | 5475 ft | 266 kts | 60° |
| 2026-04-12 10:12 | 32.82734 | -16.42175 | 5228 ft | 256 kts | 58° |
| 2026-04-12 10:13 | 32.83641 | -16.40383 | 4753 ft | 255 kts | 54° |
| 2026-04-12 10:13 | 32.84687 | -16.38670 | 4220 ft | 255 kts | 49° |
| 2026-04-12 10:13 | 32.85834 | -16.37089 | 3740 ft | 251 kts | 44° |
| 2026-04-12 10:13 | 32.87142 | -16.35738 | 3321 ft | 247 kts | 33° |
| 2026-04-12 10:14 | 32.88685 | -16.34802 | 2705 ft | 251 kts | 18° |
| 2026-04-12 10:14 | 32.90382 | -16.34449 | 2337 ft | 241 kts | 5° |
| 2026-04-12 10:14 | 32.91925 | -16.34379 | 2160 ft | 200 kts | 2° |
| 2026-04-12 10:14 | 32.93249 | -16.34319 | 2107 ft | 187 kts | 4° |
| 2026-04-12 10:15 | 32.94501 | -16.34247 | 2082 ft | 172 kts | 4° |
| 2026-04-12 10:15 | 32.95635 | -16.34187 | 2058 ft | 156 kts | 4° |
| 2026-04-12 10:15 | 32.96706 | -16.34138 | 2040 ft | 156 kts | 4° |
| 2026-04-12 10:15 | 32.97859 | -16.34136 | 2063 ft | 161 kts | 359° |
| 2026-04-12 10:16 | 32.98926 | -16.34216 | 2039 ft | 145 kts | 359° |
| 2026-04-12 10:16 | 32.99931 | -16.34396 | 1917 ft | 146 kts | 353° |
| 2026-04-12 10:16 | 33.00927 | -16.34619 | 1787 ft | 145 kts | 353° |
| 2026-04-12 10:16 | 33.01910 | -16.34832 | 1558 ft | 147 kts | 354° |
| 2026-04-12 10:17 | 33.02918 | -16.34887 | 1123 ft | 145 kts | 3° |
| 2026-04-12 10:17 | 33.03930 | -16.34883 | 663 ft | 144 kts | 2° |
| 2026-04-12 10:17 | 33.04895 | -16.34907 | 491 ft | 138 kts | 1° |
| 2026-04-12 10:17 | 33.05884 | -16.34937 | 309 ft | 145 kts | 359° |
| 2026-04-12 10:18 | 33.06859 | -16.34976 | 284 ft | 128 kts | 356° |
| 2026-04-12 10:18 | 33.07493 | -16.34997 | 306 ft | 51 kts | 359° |
| 2026-04-12 10:18 | 33.07702 | -16.35004 | 313 ft | 22 kts | 357° |
| 2026-04-12 10:18 | 33.07823 | -16.35013 | 316 ft | 13 kts | 359° |
| 2026-04-12 10:19 | 33.07891 | -16.35014 | 318 ft | 6 kts | 358° |
| 2026-04-12 10:19 | 33.07938 | -16.35016 | 320 ft | 9 kts | 358° |
| 2026-04-12 10:19 | 33.08008 | -16.35014 | 323 ft | 9 kts | 11° |
| 2026-04-12 10:19 | 33.08061 | -16.34973 | 324 ft | 12 kts | 43° |
| 2026-04-12 10:20 | 33.08147 | -16.34919 | 330 ft | 11 kts | 357° |
| 2026-04-12 10:20 | 33.08177 | -16.34979 | 329 ft | 9 kts | 269° |
| 2026-04-12 10:20 | 33.08127 | -16.35021 | 328 ft | 11 kts | 187° |
| 2026-04-12 10:20 | 33.08032 | -16.35021 | 324 ft | 16 kts | 179° |
| 2026-04-12 10:21 | 33.07897 | -16.35020 | 318 ft | 22 kts | 180° |
| 2026-04-12 10:21 | 33.07738 | -16.35010 | 314 ft | 25 kts | 178° |
| 2026-04-12 10:21 | 33.07549 | -16.35002 | 307 ft | 30 kts | 178° |
| 2026-04-12 10:21 | 33.07332 | -16.34991 | 302 ft | 33 kts | 179° |
| 2026-04-12 10:22 | 33.07092 | -16.34985 | 293 ft | 36 kts | 178° |
| 2026-04-12 10:22 | 33.06963 | -16.34924 | 288 ft | 12 kts | 100° |
| 2026-04-12 10:22 | 33.06965 | -16.34800 | 287 ft | 20 kts | 87° |
| 2026-04-12 10:22 | 33.07005 | -16.34718 | 291 ft | 7 kts | 13° |
| 2026-04-12 10:23 | 33.07056 | -16.34718 | 290 ft | 8 kts | 359° |
| 2026-04-12 10:23 | 33.07110 | -16.34719 | 294 ft | 8 kts | 359° |
| 2026-04-12 10:23 | 33.07163 | -16.34722 | 294 ft | 8 kts | 356° |
| 2026-04-12 10:23 | 33.07190 | -16.34692 | 298 ft | 5 kts | 79° |
| 2026-04-12 10:24 | 33.07186 | -16.34642 | 295 ft | 4 kts | 110° |
| 2026-04-12 10:24 | 33.07182 | -16.34631 | 295 ft | 1 kts | 113° |
| 2026-04-12 10:24 | 33.07181 | -16.34629 | 294 ft | 0 kts | 113° |
| 2026-04-12 10:24 | 33.07187 | -16.34635 | 295 ft | 0 kts | 135° |